Time;durP1;ratioP1;P1;durP2;ratioP2;P2;SDS_P1;SDS_P2;PMS_P1;PMS_P2;Temp;Humidity;BMP_temperature;BMP_pressure;BME280_temperature;BME280_humidity;BME280_pressure;Samples;Min_cycle;Max_cycle;Signal;HPM_P1;HPM_P2
2021/09/11 00:01:43;;;;;;;11.07;10.27;;;18.90;99.90;;;;;;5108768;28;20663;-96
2021/09/11 00:04:10;;;;;;;10.00;9.20;;;18.80;99.90;;;;;;5115455;28;20639;-96
2021/09/11 00:06:38;;;;;;;10.63;9.80;;;18.80;99.90;;;;;;5118665;28;20605;-96
2021/09/11 00:09:12;;;;;;;10.70;9.83;;;18.80;99.90;;;;;;5110667;28;20982;-96
2021/09/11 00:11:49;;;;;;;10.30;9.50;;;18.80;99.90;;;;;;5109958;28;20679;-96
2021/09/11 00:14:18;;;;;;;10.07;9.40;;;18.70;99.90;;;;;;5077835;28;20631;-96
2021/09/11 00:16:45;;;;;;;10.33;9.63;;;18.70;99.90;;;;;;5099911;28;20612;-96
2021/09/11 00:19:15;;;;;;;10.40;9.77;;;18.60;99.90;;;;;;5097155;28;20662;-95
2021/09/11 00:21:42;;;;;;;11.13;10.23;;;18.60;99.90;;;;;;5105805;28;20665;-96
2021/09/11 00:24:13;;;;;;;10.00;9.30;;;18.70;99.90;;;;;;5107318;28;20662;-96
2021/09/11 00:26:41;;;;;;;10.20;9.40;;;18.60;99.90;;;;;;5105231;28;20632;-96
2021/09/11 00:29:08;;;;;;;10.30;9.30;;;18.70;99.90;;;;;;5106206;28;20635;-96
2021/09/11 00:31:39;;;;;;;9.73;8.80;;;18.80;99.90;;;;;;5101062;28;20685;-96
2021/09/11 00:34:07;;;;;;;9.53;8.57;;;19.00;99.90;;;;;;5101304;28;20624;-95
2021/09/11 00:36:34;;;;;;;8.13;7.43;;;19.00;99.90;;;;;;5087829;28;21246;-96
2021/09/11 00:39:02;;;;;;;9.10;8.40;;;19.10;99.90;;;;;;5096553;28;21210;-96
2021/09/11 00:41:29;;;;;;;8.87;8.17;;;19.20;99.90;;;;;;5078028;28;20655;-95
2021/09/11 00:43:56;;;;;;;9.37;8.43;;;19.20;99.90;;;;;;5098342;28;20727;-96
2021/09/11 00:46:25;;;;;;;8.60;8.00;;;19.20;99.90;;;;;;5099115;28;20711;-96
2021/09/11 00:48:54;;;;;;;8.57;7.87;;;19.20;99.90;;;;;;5098838;28;20734;-96
2021/09/11 00:51:26;;;;;;;8.27;7.50;;;19.30;99.90;;;;;;5094910;28;20656;-96
2021/09/11 00:53:53;;;;;;;7.70;7.10;;;19.30;99.90;;;;;;5096324;28;21215;-96
2021/09/11 00:56:20;;;;;;;7.57;6.97;;;19.30;99.90;;;;;;5096087;28;20624;-96
2021/09/11 00:58:49;;;;;;;8.13;7.53;;;19.30;99.90;;;;;;5098874;28;20634;-96
2021/09/11 01:01:18;;;;;;;7.50;6.90;;;19.30;99.90;;;;;;5100166;28;20663;-96
2021/09/11 01:03:45;;;;;;;7.43;6.83;;;19.20;99.90;;;;;;5115486;28;20659;-95
2021/09/11 01:06:15;;;;;;;7.97;7.37;;;19.30;99.90;;;;;;5113650;28;20735;-96
2021/09/11 01:08:46;;;;;;;9.53;8.93;;;19.20;99.90;;;;;;5100081;28;21162;-96
2021/09/11 01:11:15;;;;;;;10.20;9.50;;;19.10;99.90;;;;;;5100040;28;20681;-96
2021/09/11 01:13:42;;;;;;;10.40;9.70;;;19.00;99.90;;;;;;5030315;28;21071;-96
2021/09/11 01:16:14;;;;;;;10.67;9.67;;;18.90;99.90;;;;;;5035447;28;20670;-96
2021/09/11 01:18:45;;;;;;;10.83;9.80;;;18.90;99.90;;;;;;5042825;28;20615;-96
2021/09/11 01:21:14;;;;;;;10.43;9.40;;;18.90;99.90;;;;;;5033587;28;21209;-96
2021/09/11 01:23:43;;;;;;;11.87;11.03;;;18.80;99.90;;;;;;5023593;28;20778;-96
2021/09/11 01:26:14;;;;;;;9.80;9.20;;;18.80;99.90;;;;;;5018997;28;20640;-96
2021/09/11 01:28:49;;;;;;;9.03;8.33;;;18.70;99.90;;;;;;5026224;28;20729;-96
2021/09/11 01:34:42;;;;;;;9.53;8.63;;;18.70;99.90;;;;;;5042068;28;20627;-96
2021/09/11 01:45:55;;;;;;;7.53;6.83;;;18.70;99.90;;;;;;5033680;28;20657;-96
2021/09/11 01:48:47;;;;;;;7.97;7.30;;;18.70;99.90;;;;;;5043292;28;20615;-96
2021/09/11 01:54:15;;;;;;;9.30;8.53;;;18.70;99.90;;;;;;5048534;28;20626;-96
2021/09/11 01:57:12;;;;;;;9.13;8.50;;;18.70;99.90;;;;;;5052752;28;20606;-96
2021/09/11 01:59:59;;;;;;;10.17;9.40;;;18.70;99.90;;;;;;5018345;28;20676;-96
2021/09/11 02:06:11;;;;;;;10.00;9.00;;;18.70;99.90;;;;;;5060139;28;20603;-96
2021/09/11 02:08:43;;;;;;;10.40;9.50;;;18.70;99.90;;;;;;5047632;28;20643;-96
2021/09/11 02:21:44;;;;;;;9.47;8.73;;;18.70;99.90;;;;;;5004422;28;20671;-96
2021/09/11 02:24:12;;;;;;;8.10;7.50;;;18.70;99.90;;;;;;5001238;28;20676;-96
2021/09/11 02:26:40;;;;;;;7.43;6.93;;;18.60;99.90;;;;;;5011934;28;20715;-95
2021/09/11 02:29:10;;;;;;;8.80;8.20;;;18.70;99.90;;;;;;5014017;28;20626;-96
2021/09/11 02:31:37;;;;;;;8.10;7.50;;;18.70;99.90;;;;;;5021635;28;21378;-95
2021/09/11 02:34:04;;;;;;;8.30;7.70;;;18.70;99.90;;;;;;5019761;28;20703;-95
2021/09/11 02:36:33;;;;;;;8.33;7.80;;;18.70;99.90;;;;;;5024037;28;20639;-95
2021/09/11 02:39:03;;;;;;;9.60;8.90;;;18.60;99.90;;;;;;5038626;28;20624;-96
2021/09/11 02:41:32;;;;;;;8.63;7.97;;;18.60;99.90;;;;;;5025679;28;20646;-96
2021/09/11 02:43:59;;;;;;;8.90;8.30;;;18.60;99.90;;;;;;5022858;28;20688;-96
2021/09/11 02:46:27;;;;;;;7.23;6.80;;;18.60;99.90;;;;;;5021545;28;20715;-96
2021/09/11 02:48:54;;;;;;;7.83;7.33;;;18.50;99.90;;;;;;5012263;28;21212;-95
2021/09/11 02:51:20;;;;;;;7.70;7.10;;;18.50;99.90;;;;;;5017123;28;21285;-95
2021/09/11 02:53:47;;;;;;;8.60;8.10;;;18.50;99.90;;;;;;5019507;28;20663;-96
2021/09/11 02:56:17;;;;;;;7.93;7.33;;;18.50;99.90;;;;;;5019641;28;20674;-95
2021/09/11 02:58:46;;;;;;;8.50;7.70;;;18.50;99.90;;;;;;5025630;28;20738;-96
2021/09/11 03:01:13;;;;;;;8.57;7.87;;;18.50;99.90;;;;;;5016951;28;20701;-96
2021/09/11 03:03:41;;;;;;;8.67;7.90;;;18.50;99.90;;;;;;5025827;28;20683;-96
2021/09/11 03:06:08;;;;;;;7.27;6.63;;;18.50;99.90;;;;;;5026011;28;20645;-96
2021/09/11 03:08:37;;;;;;;7.30;6.70;;;18.40;99.90;;;;;;5024798;28;20678;-96
2021/09/11 03:11:04;;;;;;;7.10;6.50;;;18.50;99.90;;;;;;5023028;28;20702;-96
2021/09/11 03:13:32;;;;;;;7.43;6.83;;;18.60;99.90;;;;;;5023426;28;20638;-95
2021/09/11 03:16:00;;;;;;;7.60;7.10;;;18.50;99.90;;;;;;5022726;28;20643;-95
2021/09/11 03:18:29;;;;;;;7.33;6.83;;;18.40;99.90;;;;;;5024478;28;20634;-96
2021/09/11 03:20:56;;;;;;;7.30;6.80;;;18.40;99.90;;;;;;5031144;28;20651;-95
2021/09/11 03:23:24;;;;;;;6.70;6.17;;;18.30;99.90;;;;;;5029972;28;20647;-96
2021/09/11 03:25:51;;;;;;;6.70;6.10;;;18.40;99.90;;;;;;5020848;28;20627;-95
2021/09/11 03:28:20;;;;;;;6.93;6.23;;;18.40;99.90;;;;;;5017205;28;20895;-96
2021/09/11 03:30:47;;;;;;;7.03;6.53;;;18.30;99.90;;;;;;5025863;28;21205;-96
2021/09/11 03:33:21;;;;;;;7.23;6.60;;;18.30;99.90;;;;;;5018534;28;20635;-95
2021/09/11 03:35:48;;;;;;;6.97;6.47;;;18.20;99.90;;;;;;5018642;28;20703;-96
2021/09/11 03:38:15;;;;;;;6.87;6.27;;;18.20;99.90;;;;;;5022509;28;20900;-95
2021/09/11 03:40:42;;;;;;;8.10;7.60;;;18.30;99.90;;;;;;5015065;28;20755;-96
2021/09/11 03:43:09;;;;;;;6.93;6.50;;;18.30;99.90;;;;;;5023604;28;20657;-95
2021/09/11 03:45:36;;;;;;;7.83;7.20;;;18.20;99.90;;;;;;5018614;28;20711;-96
2021/09/11 03:48:04;;;;;;;7.67;7.17;;;18.20;99.90;;;;;;5014915;28;20633;-96
2021/09/11 03:50:32;;;;;;;6.93;6.33;;;18.30;99.90;;;;;;5011317;28;20766;-96
2021/09/11 04:01:04;;;;;;;5.80;5.40;;;18.20;99.90;;;;;;5057381;28;20619;-96
2021/09/11 04:03:32;;;;;;;6.60;6.00;;;18.10;99.90;;;;;;5037420;28;20647;-95
2021/09/11 04:06:01;;;;;;;7.03;6.43;;;18.20;99.90;;;;;;5038926;28;20801;-94
2021/09/11 04:08:30;;;;;;;6.60;6.10;;;18.20;99.90;;;;;;5038899;28;20614;-92
2021/09/11 04:10:57;;;;;;;7.40;6.83;;;18.10;99.90;;;;;;5038441;28;20633;-93
2021/09/11 04:13:24;;;;;;;6.20;5.70;;;18.10;99.90;;;;;;5040288;28;21320;-96
2021/09/11 04:15:52;;;;;;;7.47;6.97;;;18.10;99.90;;;;;;5029357;28;20750;-94
2021/09/11 04:18:19;;;;;;;7.40;6.90;;;18.20;99.90;;;;;;5040323;28;20665;-94
2021/09/11 04:20:46;;;;;;;7.97;7.37;;;18.10;99.90;;;;;;5040934;28;20622;-94
2021/09/11 04:23:15;;;;;;;6.97;6.47;;;18.10;99.90;;;;;;5027644;28;20757;-93
2021/09/11 04:25:42;;;;;;;7.63;7.10;;;18.20;99.90;;;;;;5038663;28;21043;-95
2021/09/11 04:28:08;;;;;;;5.60;5.10;;;18.20;99.90;;;;;;5042976;28;20618;-95
2021/09/11 04:30:38;;;;;;;8.10;7.17;;;18.20;99.90;;;;;;5052860;28;20641;-94
2021/09/11 04:33:08;;;;;;;6.67;6.10;;;18.20;99.90;;;;;;5036411;28;20638;-94
2021/09/11 04:35:35;;;;;;;6.10;5.60;;;18.10;99.90;;;;;;5031707;28;20658;-92
2021/09/11 04:38:02;;;;;;;6.03;5.50;;;18.10;99.90;;;;;;5030237;28;20855;-91
2021/09/11 04:40:33;;;;;;;7.53;6.83;;;18.10;99.90;;;;;;5026359;28;20635;-92
2021/09/11 04:43:00;;;;;;;7.20;6.50;;;18.10;99.90;;;;;;5028087;28;20711;-93
2021/09/11 04:45:26;;;;;;;6.93;6.40;;;18.10;99.90;;;;;;5030418;28;20667;-93
2021/09/11 04:47:53;;;;;;;7.20;6.50;;;18.20;99.90;;;;;;5024815;28;21164;-92
2021/09/11 04:50:22;;;;;;;8.47;7.87;;;18.10;99.90;;;;;;5033975;28;21496;-93
2021/09/11 04:52:49;;;;;;;6.93;6.43;;;18.20;99.90;;;;;;5035165;28;21219;-91
2021/09/11 04:55:16;;;;;;;7.27;6.77;;;18.20;99.90;;;;;;5031163;28;20999;-91
2021/09/11 04:57:45;;;;;;;7.10;6.60;;;18.20;99.90;;;;;;5034607;28;21075;-92
2021/09/11 05:00:14;;;;;;;6.37;5.97;;;18.20;99.90;;;;;;5036269;28;20587;-93
2021/09/11 05:02:40;;;;;;;7.30;6.67;;;18.20;99.90;;;;;;5032877;28;20634;-93
2021/09/11 05:05:09;;;;;;;6.80;6.40;;;18.30;99.90;;;;;;5036810;28;20674;-92
2021/09/11 05:07:36;;;;;;;6.70;6.30;;;18.30;99.90;;;;;;5028870;28;20786;-92
2021/09/11 05:10:07;;;;;;;6.47;5.83;;;18.20;99.90;;;;;;5030434;28;20626;-92
2021/09/11 05:12:35;;;;;;;7.53;7.03;;;18.20;99.90;;;;;;5021530;28;20978;-90
2021/09/11 05:15:03;;;;;;;5.43;5.03;;;18.20;99.90;;;;;;5029650;28;21071;-91
2021/09/11 05:17:31;;;;;;;6.47;5.97;;;18.20;99.90;;;;;;5024485;28;20978;-91
2021/09/11 05:19:58;;;;;;;5.63;5.23;;;18.20;99.90;;;;;;5032674;28;20635;-92
2021/09/11 05:22:25;;;;;;;5.47;5.07;;;18.10;99.90;;;;;;5035197;28;20688;-92
2021/09/11 05:24:52;;;;;;;6.40;5.90;;;18.10;99.90;;;;;;5031521;28;20686;-91
2021/09/11 05:27:22;;;;;;;5.77;5.37;;;18.10;99.90;;;;;;5029834;28;20839;-92
2021/09/11 05:29:51;;;;;;;5.77;5.27;;;18.00;99.90;;;;;;5037068;28;20626;-93
2021/09/11 05:32:19;;;;;;;5.43;5.00;;;17.90;99.90;;;;;;5037034;28;20651;-92
2021/09/11 05:34:46;;;;;;;5.50;5.10;;;17.90;99.90;;;;;;5042163;28;21154;-92
2021/09/11 05:37:13;;;;;;;4.83;4.53;;;17.90;99.90;;;;;;5036920;28;20588;-93
2021/09/11 05:39:40;;;;;;;5.37;5.07;;;18.00;99.90;;;;;;5038669;28;20625;-92
2021/09/11 05:42:07;;;;;;;6.00;4.93;;;18.00;99.90;;;;;;5034002;28;20638;-93
2021/09/11 05:44:34;;;;;;;5.53;5.13;;;17.90;99.90;;;;;;5032844;28;20673;-91
2021/09/11 05:47:01;;;;;;;4.83;4.53;;;17.90;99.90;;;;;;5036054;28;20644;-91
2021/09/11 05:49:29;;;;;;;6.23;5.63;;;17.80;99.90;;;;;;5039685;28;21168;-93
2021/09/11 05:51:56;;;;;;;5.23;4.93;;;17.70;99.90;;;;;;5040908;28;20635;-91
2021/09/11 05:54:23;;;;;;;6.10;5.60;;;17.70;99.90;;;;;;5041999;28;20582;-91
2021/09/11 05:56:50;;;;;;;5.63;5.30;;;17.60;99.90;;;;;;5034717;28;20685;-91
2021/09/11 05:59:16;;;;;;;5.20;4.87;;;17.70;99.90;;;;;;5040521;28;20645;-93
2021/09/11 06:01:43;;;;;;;5.23;4.93;;;17.70;99.90;;;;;;5036112;28;20827;-91
2021/09/11 06:04:10;;;;;;;5.30;5.00;;;17.80;99.90;;;;;;5030458;28;20672;-92
2021/09/11 06:06:39;;;;;;;5.77;5.37;;;17.80;99.90;;;;;;5034064;28;20666;-92
2021/09/11 06:09:06;;;;;;;6.00;5.50;;;17.70;99.90;;;;;;5046740;28;20638;-93
2021/09/11 06:11:33;;;;;;;5.63;5.23;;;17.80;99.90;;;;;;5049058;28;20748;-91
2021/09/11 06:14:00;;;;;;;5.87;5.50;;;17.90;99.90;;;;;;5037431;28;20634;-92
2021/09/11 06:16:27;;;;;;;5.80;5.00;;;17.80;99.90;;;;;;5036436;28;21184;-92
2021/09/11 06:18:54;;;;;;;6.40;5.53;;;17.80;99.90;;;;;;5039946;28;20633;-91
2021/09/11 06:21:21;;;;;;;6.40;5.90;;;17.80;99.90;;;;;;5039988;28;20723;-91
2021/09/11 06:23:49;;;;;;;7.80;7.07;;;17.80;99.90;;;;;;5042656;28;20733;-91
2021/09/11 06:26:16;;;;;;;6.23;5.83;;;17.70;99.90;;;;;;5040710;28;20717;-91
2021/09/11 06:28:43;;;;;;;6.27;5.87;;;17.70;99.90;;;;;;5041852;28;20624;-91
2021/09/11 06:31:10;;;;;;;7.67;7.07;;;17.80;99.90;;;;;;5042785;28;20677;-91
2021/09/11 06:33:37;;;;;;;6.80;6.30;;;17.80;99.90;;;;;;5040196;28;20725;-91
2021/09/11 06:36:10;;;;;;;7.47;6.97;;;17.80;99.90;;;;;;5033537;28;20638;-91
2021/09/11 06:38:37;;;;;;;7.30;6.73;;;17.80;99.90;;;;;;5034764;28;20635;-92
2021/09/11 06:41:08;;;;;;;7.40;6.70;;;17.80;99.90;;;;;;5036149;28;20634;-92
2021/09/11 06:43:35;;;;;;;8.53;7.87;;;17.90;99.90;;;;;;5029853;28;20666;-92
2021/09/11 06:46:02;;;;;;;8.20;7.37;;;17.80;99.90;;;;;;5033812;28;20671;-94
2021/09/11 06:48:29;;;;;;;8.13;7.40;;;17.80;99.90;;;;;;5035778;28;20631;-93
2021/09/11 06:50:56;;;;;;;8.20;7.50;;;17.90;99.90;;;;;;5037361;28;20648;-92
2021/09/11 06:53:23;;;;;;;8.17;7.63;;;17.90;99.90;;;;;;5040595;28;20635;-93
2021/09/11 06:55:51;;;;;;;8.00;7.47;;;17.90;99.90;;;;;;5033896;28;21317;-93
2021/09/11 06:58:19;;;;;;;7.97;7.47;;;18.00;99.90;;;;;;5041437;28;20638;-93
2021/09/11 07:00:46;;;;;;;9.03;8.27;;;18.10;99.90;;;;;;5032945;28;20619;-93
2021/09/11 07:03:13;;;;;;;8.73;7.93;;;18.10;99.90;;;;;;5044953;28;20624;-92
2021/09/11 07:05:40;;;;;;;8.20;7.60;;;18.10;99.90;;;;;;5033458;28;20681;-93
2021/09/11 07:08:06;;;;;;;8.27;7.53;;;18.20;99.90;;;;;;5048824;28;20646;-92
2021/09/11 07:10:33;;;;;;;8.17;7.57;;;18.30;99.90;;;;;;5034746;28;20626;-91
2021/09/11 07:13:00;;;;;;;7.27;6.67;;;18.40;99.90;;;;;;5050007;28;20626;-92
2021/09/11 07:15:28;;;;;;;7.40;6.90;;;18.50;99.90;;;;;;5044451;28;20654;-92
2021/09/11 07:17:55;;;;;;;7.20;6.60;;;18.60;99.90;;;;;;5042979;28;20694;-92
2021/09/11 07:20:24;;;;;;;6.93;6.20;;;18.70;99.90;;;;;;5042002;28;20623;-92
2021/09/11 07:22:52;;;;;;;7.27;6.67;;;18.80;99.90;;;;;;5044105;28;20635;-92
2021/09/11 07:25:18;;;;;;;6.77;6.20;;;18.90;99.90;;;;;;5044317;28;20693;-93
2021/09/11 07:27:48;;;;;;;6.00;5.40;;;18.90;99.90;;;;;;5051829;28;20611;-93
2021/09/11 07:30:17;;;;;;;7.90;6.37;;;19.00;99.90;;;;;;5041481;28;20622;-92
2021/09/11 07:32:45;;;;;;;6.53;6.03;;;18.90;99.90;;;;;;5046157;28;20649;-93
2021/09/11 07:35:12;;;;;;;5.87;5.47;;;18.90;99.90;;;;;;5056077;28;20715;-91
2021/09/11 07:37:40;;;;;;;7.23;6.60;;;18.80;99.90;;;;;;5053669;28;20651;-92
2021/09/11 07:40:09;;;;;;;8.43;7.50;;;18.80;99.90;;;;;;5062615;28;20694;-93
2021/09/11 07:42:36;;;;;;;6.50;5.97;;;18.90;99.90;;;;;;5055131;28;20659;-90
2021/09/11 07:45:13;;;;;;;7.30;6.60;;;19.00;99.90;;;;;;5054823;28;20711;-92
2021/09/11 07:47:41;;;;;;;6.50;5.87;;;19.10;99.90;;;;;;5051007;28;20610;-92
2021/09/11 07:50:10;;;;;;;7.03;6.50;;;19.20;99.90;;;;;;5043025;28;20691;-89
2021/09/11 07:52:42;;;;;;;7.23;6.03;;;19.30;99.90;;;;;;5050563;28;20680;-90
2021/09/11 07:55:16;;;;;;;7.00;6.40;;;19.40;99.90;;;;;;5044215;28;20664;-90
2021/09/11 07:57:43;;;;;;;6.40;5.90;;;19.30;99.90;;;;;;5038259;28;20629;-88
2021/09/11 08:00:11;;;;;;;6.13;5.63;;;19.40;99.90;;;;;;5041557;28;20623;-88
2021/09/11 08:02:38;;;;;;;6.33;5.80;;;19.60;99.90;;;;;;5034252;28;20991;-88
2021/09/11 08:05:05;;;;;;;5.77;5.27;;;19.40;99.90;;;;;;5043313;28;20659;-89
2021/09/11 08:07:35;;;;;;;5.57;5.07;;;19.40;99.90;;;;;;5038480;28;21174;-90
2021/09/11 08:10:03;;;;;;;6.60;6.00;;;19.30;99.90;;;;;;5049097;28;20634;-87
2021/09/11 08:12:30;;;;;;;6.10;5.60;;;19.50;99.90;;;;;;5043227;28;21172;-87
2021/09/11 08:14:59;;;;;;;5.83;5.33;;;19.80;99.90;;;;;;5032511;28;20658;-87
2021/09/11 08:17:44;;;;;;;6.07;5.57;;;19.80;99.90;;;;;;5032134;28;20634;-86
2021/09/11 08:20:13;;;;;;;8.60;7.80;;;19.90;99.90;;;;;;5035576;28;20627;-88
2021/09/11 08:22:41;;;;;;;6.93;6.33;;;20.20;99.90;;;;;;5035520;28;21156;-88
2021/09/11 08:25:09;;;;;;;7.97;6.10;;;20.40;99.90;;;;;;5036859;28;20682;-88
2021/09/11 08:27:36;;;;;;;7.10;4.70;;;20.60;99.90;;;;;;5036702;28;20642;-88
2021/09/11 08:30:03;;;;;;;6.00;5.50;;;20.50;99.90;;;;;;5038048;28;20636;-87
2021/09/11 08:32:32;;;;;;;5.67;5.13;;;20.40;99.90;;;;;;5032386;28;20630;-87
2021/09/11 08:34:59;;;;;;;5.87;5.37;;;20.60;99.90;;;;;;5033726;28;20642;-87
2021/09/11 08:37:26;;;;;;;6.83;5.43;;;20.70;99.90;;;;;;5029305;28;20626;-88
2021/09/11 08:39:59;;;;;;;5.97;5.57;;;20.80;99.90;;;;;;5038773;28;20628;-87
2021/09/11 08:42:26;;;;;;;5.20;4.80;;;20.70;99.90;;;;;;5039397;28;20637;-88
2021/09/11 08:44:53;;;;;;;5.93;5.40;;;20.50;99.90;;;;;;5031258;28;20674;-87
2021/09/11 08:47:20;;;;;;;4.23;3.93;;;20.40;99.90;;;;;;5032802;28;20662;-87
2021/09/11 08:49:46;;;;;;;5.23;4.73;;;20.60;99.90;;;;;;5036527;28;20653;-88
2021/09/11 08:52:13;;;;;;;5.07;4.63;;;20.60;99.90;;;;;;5034518;28;20644;-88
2021/09/11 08:54:43;;;;;;;4.93;4.43;;;20.70;99.90;;;;;;5035510;28;20629;-88
2021/09/11 08:57:30;;;;;;;6.17;5.77;;;20.80;99.90;;;;;;5031125;28;20642;-88
2021/09/11 08:59:57;;;;;;;5.00;4.60;;;20.80;99.90;;;;;;5031958;28;20629;-88
2021/09/11 09:02:25;;;;;;;6.50;5.77;;;21.00;99.90;;;;;;5033402;28;21488;-87
2021/09/11 09:04:53;;;;;;;5.00;4.60;;;20.80;99.90;;;;;;5038598;28;20701;-88
2021/09/11 09:07:35;;;;;;;6.13;5.63;;;21.20;99.90;;;;;;5026518;28;21184;-86
2021/09/11 09:10:04;;;;;;;4.60;4.23;;;21.50;99.90;;;;;;5035200;28;21058;-87
2021/09/11 09:12:34;;;;;;;4.30;3.90;;;21.40;99.90;;;;;;5049076;28;20614;-86
2021/09/11 09:15:03;;;;;;;4.80;4.40;;;21.30;99.90;;;;;;5035675;28;20642;-86
2021/09/11 09:17:41;;;;;;;5.20;4.70;;;21.60;99.90;;;;;;5037982;28;20625;-87
2021/09/11 09:20:13;;;;;;;4.23;3.93;;;21.80;99.90;;;;;;5046136;28;20972;-88
2021/09/11 09:22:40;;;;;;;5.07;4.60;;;21.70;99.90;;;;;;5046061;28;20618;-87
2021/09/11 09:25:19;;;;;;;5.63;4.77;;;21.80;99.90;;;;;;5041826;28;20756;-88
2021/09/11 09:27:50;;;;;;;4.60;4.00;;;21.60;99.90;;;;;;5040668;28;20991;-87
2021/09/11 09:30:22;;;;;;;4.27;3.87;;;21.50;99.90;;;;;;5044120;28;20653;-87
2021/09/11 09:32:50;;;;;;;4.13;3.73;;;21.40;99.90;;;;;;5043034;28;20668;-88
2021/09/11 09:35:22;;;;;;;3.40;3.10;;;21.50;99.90;;;;;;5043706;28;21229;-88
2021/09/11 09:38:06;;;;;;;4.80;4.30;;;21.70;99.90;;;;;;5043021;28;21485;-88
2021/09/11 09:40:41;;;;;;;4.93;4.50;;;21.90;99.90;;;;;;5034950;28;20679;-87
2021/09/11 09:43:11;;;;;;;4.33;4.00;;;22.20;99.90;;;;;;5043749;28;21016;-87
2021/09/11 09:45:39;;;;;;;4.63;3.27;;;22.40;99.90;;;;;;5044776;28;20673;-86
2021/09/11 09:48:09;;;;;;;4.30;3.60;;;22.60;99.90;;;;;;5038280;28;20626;-88
2021/09/11 09:50:38;;;;;;;3.83;3.53;;;22.80;99.90;;;;;;5037606;28;20635;-87
2021/09/11 09:53:05;;;;;;;4.27;3.97;;;22.80;99.90;;;;;;5042926;28;20637;-87
2021/09/11 09:55:33;;;;;;;3.43;3.23;;;22.80;99.90;;;;;;5047891;28;20638;-87
2021/09/11 09:58:01;;;;;;;3.63;3.43;;;23.00;99.90;;;;;;5047169;28;20626;-87
2021/09/11 10:00:29;;;;;;;3.63;3.40;;;23.10;99.90;;;;;;5042187;28;20991;-88
2021/09/11 10:02:56;;;;;;;3.87;3.60;;;23.50;99.90;;;;;;5043272;28;20618;-86
2021/09/11 10:05:25;;;;;;;4.17;3.77;;;23.90;99.90;;;;;;5040633;28;20678;-88
2021/09/11 10:08:00;;;;;;;3.53;3.00;;;23.70;99.90;;;;;;5040395;28;20652;-87
2021/09/11 10:10:29;;;;;;;3.80;3.50;;;23.50;99.90;;;;;;5046127;28;20613;-88
2021/09/11 10:13:07;;;;;;;4.43;3.57;;;23.90;99.90;;;;;;5036630;28;20610;-87
2021/09/11 10:15:52;;;;;;;4.03;3.73;;;24.60;99.90;;;;;;5038523;28;20638;-87
2021/09/11 10:18:44;;;;;;;3.43;3.23;;;24.30;99.90;;;;;;5035126;28;21190;-87
2021/09/11 10:21:17;;;;;;;3.00;2.80;;;24.20;99.90;;;;;;5043929;28;20632;-87
2021/09/11 10:24:04;;;;;;;4.03;3.53;;;24.10;99.90;;;;;;5046614;28;20649;-88
2021/09/11 10:26:46;;;;;;;3.60;3.30;;;24.50;99.90;;;;;;5029981;28;21102;-88
2021/09/11 10:29:46;;;;;;;3.60;3.23;;;25.00;99.90;;;;;;5040374;28;20676;-88
2021/09/11 10:32:18;;;;;;;3.70;3.40;;;25.30;99.90;;;;;;5042566;28;20614;-89
2021/09/11 10:34:49;;;;;;;4.03;3.60;;;25.00;99.90;;;;;;5036226;28;20622;-88
2021/09/11 10:37:25;;;;;;;4.80;3.30;;;25.50;99.90;;;;;;5042256;28;20621;-89
2021/09/11 10:40:13;;;;;;;3.30;3.00;;;26.20;99.90;;;;;;5038601;28;21025;-87
2021/09/11 10:43:16;;;;;;;3.70;3.40;;;26.30;99.90;;;;;;5037959;28;21244;-88
2021/09/11 10:45:44;;;;;;;3.70;3.10;;;25.90;99.90;;;;;;5032327;28;20686;-89
2021/09/11 10:48:52;;;;;;;3.47;3.17;;;25.50;99.90;;;;;;5037720;28;20993;-87
2021/09/11 10:51:29;;;;;;;3.20;2.60;;;25.50;99.90;;;;;;5029652;28;20632;-87
2021/09/11 10:54:04;;;;;;;3.23;2.93;;;25.90;99.90;;;;;;5029450;28;20629;-87
2021/09/11 10:56:33;;;;;;;3.27;2.93;;;25.30;99.90;;;;;;5041538;28;21600;-88
2021/09/11 10:59:25;;;;;;;3.10;2.90;;;24.80;99.90;;;;;;5042296;28;20631;-88
2021/09/11 11:01:59;;;;;;;2.57;2.37;;;24.60;99.90;;;;;;5037007;28;20640;-88
2021/09/11 11:04:27;;;;;;;3.10;2.90;;;24.60;99.90;;;;;;5034060;28;20618;-88
2021/09/11 11:06:56;;;;;;;2.90;2.70;;;24.80;99.90;;;;;;5029060;28;20704;-87
2021/09/11 11:09:24;;;;;;;2.90;2.70;;;24.60;99.90;;;;;;5032311;28;20636;-86
2021/09/11 11:11:52;;;;;;;3.10;2.90;;;25.60;99.90;;;;;;5034793;28;20611;-88
2021/09/11 11:14:19;;;;;;;2.60;2.40;;;26.20;99.90;;;;;;5031132;28;20630;-87
2021/09/11 11:16:48;;;;;;;3.17;2.50;;;26.10;99.90;;;;;;5035915;28;20669;-86
2021/09/11 11:19:25;;;;;;;4.07;2.30;;;25.70;99.90;;;;;;5034438;28;20622;-89
2021/09/11 11:21:58;;;;;;;5.97;2.90;;;25.20;99.90;;;;;;5040991;28;20629;-88
2021/09/11 11:24:31;;;;;;;3.07;2.47;;;24.30;99.90;;;;;;5051058;28;21412;-87
2021/09/11 11:27:02;;;;;;;3.03;2.73;;;24.00;99.90;;;;;;5040839;28;20681;-87
2021/09/11 11:29:31;;;;;;;2.93;2.73;;;23.70;99.90;;;;;;5041031;28;20630;-87
2021/09/11 11:31:58;;;;;;;3.03;2.70;;;23.40;99.90;;;;;;5037606;28;20708;-87
2021/09/11 11:34:25;;;;;;;3.50;3.20;;;23.00;99.90;;;;;;5037028;28;20630;-87
2021/09/11 11:36:54;;;;;;;3.03;2.73;;;22.80;99.90;;;;;;5044827;28;20642;-88
2021/09/11 11:39:31;;;;;;;3.47;3.03;;;22.80;99.90;;;;;;5034447;28;20730;-88
2021/09/11 11:42:00;;;;;;;14.83;5.40;;;22.60;99.90;;;;;;5040864;28;20632;-89
2021/09/11 11:44:28;;;;;;;13.90;7.17;;;22.60;99.90;;;;;;5033700;28;20634;-87
2021/09/11 11:47:02;;;;;;;12.47;6.70;;;22.10;99.90;;;;;;5033747;28;21217;-88
2021/09/11 11:49:34;;;;;;;4.97;4.33;;;21.50;99.90;;;;;;5030514;28;20623;-87
2021/09/11 11:52:02;;;;;;;7.23;4.43;;;21.20;99.90;;;;;;5031132;28;20964;-87
2021/09/11 11:54:31;;;;;;;6.57;5.90;;;20.80;99.90;;;;;;5037402;28;20610;-87
2021/09/11 11:57:11;;;;;;;5.50;4.87;;;20.50;99.90;;;;;;5029262;28;20666;-87
2021/09/11 11:59:38;;;;;;;5.30;3.87;;;20.00;99.90;;;;;;5027677;28;20619;-87
2021/09/11 12:02:22;;;;;;;5.23;4.17;;;19.40;99.90;;;;;;5035534;28;20633;-86
2021/09/11 12:04:51;;;;;;;10.67;6.33;;;19.20;99.90;;;;;;5031691;28;20689;-86
2021/09/11 12:07:31;;;;;;;8.10;7.30;;;19.10;99.90;;;;;;5031395;28;20698;-87
2021/09/11 12:10:04;;;;;;;7.47;6.20;;;19.00;99.90;;;;;;5032480;28;20643;-88
2021/09/11 12:12:44;;;;;;;6.00;4.27;;;19.00;99.90;;;;;;5038538;28;20613;-90
2021/09/11 12:15:13;;;;;;;7.37;4.77;;;19.00;99.90;;;;;;5034858;28;20631;-88
2021/09/11 12:18:01;;;;;;;5.20;4.70;;;19.00;99.90;;;;;;5031258;28;20990;-88
2021/09/11 12:20:30;;;;;;;5.10;4.60;;;19.10;99.90;;;;;;5024643;28;20657;-88
2021/09/11 12:23:05;;;;;;;3.60;3.30;;;19.30;99.90;;;;;;5033663;28;21189;-87
2021/09/11 12:28:38;;;;;;;3.40;3.03;;;19.40;99.90;;;;;;5102508;27;20713;-89
2021/09/11 12:31:06;;;;;;;4.70;2.00;;;19.70;99.90;;;;;;5104569;28;20658;-87
2021/09/11 12:33:46;;;;;;;2.80;2.47;;;20.00;99.90;;;;;;5103680;28;20620;-87
2021/09/11 12:36:20;;;;;;;2.63;2.43;;;20.30;99.90;;;;;;5097819;28;20620;-88
2021/09/11 12:38:47;;;;;;;2.97;2.67;;;20.70;99.90;;;;;;5103955;28;21167;-87
2021/09/11 12:41:14;;;;;;;3.50;3.20;;;20.70;99.90;;;;;;5099419;28;20627;-89
2021/09/11 12:43:42;;;;;;;2.73;2.53;;;20.90;99.90;;;;;;5100856;28;20642;-86
2021/09/11 12:46:10;;;;;;;7.83;2.93;;;21.00;99.90;;;;;;5095855;28;20631;-87
2021/09/11 12:48:37;;;;;;;4.07;2.20;;;21.30;99.90;;;;;;5097018;27;21193;-88
2021/09/11 12:51:04;;;;;;;2.60;2.00;;;21.60;99.90;;;;;;5103096;28;20623;-88
2021/09/11 12:53:32;;;;;;;3.67;2.50;;;21.90;99.90;;;;;;5103718;28;20628;-87
2021/09/11 12:55:59;;;;;;;2.13;1.93;;;22.60;99.90;;;;;;5103782;28;20721;-88
2021/09/11 12:58:26;;;;;;;1.60;1.50;;;23.20;99.90;;;;;;5098024;28;20626;-87
2021/09/11 13:00:54;;;;;;;1.70;1.47;;;23.50;99.90;;;;;;5092364;28;21039;-88
2021/09/11 13:03:21;;;;;;;2.17;1.70;;;23.60;99.90;;;;;;5104392;28;20628;-90
2021/09/11 13:05:48;;;;;;;1.73;1.63;;;24.60;99.90;;;;;;5099913;28;21185;-88
2021/09/11 13:08:15;;;;;;;2.67;2.47;;;25.40;99.90;;;;;;5102019;28;20738;-88
2021/09/11 13:10:43;;;;;;;2.33;1.93;;;26.60;99.90;;;;;;5104391;28;20631;-88
2021/09/11 13:13:09;;;;;;;1.10;0.90;;;27.70;99.90;;;;;;5099814;28;20666;-86
2021/09/11 13:15:36;;;;;;;1.47;1.37;;;27.30;99.90;;;;;;5096850;28;20631;-86
2021/09/11 13:18:04;;;;;;;2.60;1.50;;;28.00;99.90;;;;;;5093607;28;21259;-86
2021/09/11 13:20:31;;;;;;;1.70;1.47;;;28.40;99.90;;;;;;5099398;28;20628;-86
2021/09/11 13:22:58;;;;;;;1.80;1.30;;;28.50;99.90;;;;;;5098285;28;20621;-86
2021/09/11 13:25:25;;;;;;;1.40;1.20;;;28.20;99.90;;;;;;5096042;27;20677;-86
2021/09/11 13:27:51;;;;;;;1.53;1.43;;;28.30;99.90;;;;;;5103186;28;20656;-86
2021/09/11 13:30:18;;;;;;;1.90;1.43;;;27.00;99.90;;;;;;5099805;28;20631;-85
2021/09/11 13:32:45;;;;;;;1.50;1.40;;;26.30;99.90;;;;;;5102199;28;20634;-86
2021/09/11 13:35:13;;;;;;;1.50;1.40;;;25.70;99.90;;;;;;5096926;28;21022;-87
2021/09/11 13:37:41;;;;;;;2.37;2.17;;;25.20;99.90;;;;;;5095282;28;21218;-86
2021/09/11 13:40:10;;;;;;;2.00;1.80;;;25.40;99.90;;;;;;5087500;28;21331;-86